Time,TemperatureF,DewpointF,PressureIn,WindDirection,WindDirectionDegrees,WindSpeedMPH,WindSpeedGustMPH,Humidity,HourlyPrecipIn,Conditions,Clouds,dailyrainin,SoftwareType,DateUTC
2013-09-06 00:03:00,71.8,60.2,30.12,SSE,157,6.8,-999.0,67,-99.99,,,0.00,Acu-Link.com,2013-09-06 05:03:00,
2013-09-06 00:18:00,71.6,60.5,30.11,SSE,157,4.7,-999.0,68,-99.99,,,0.00,Acu-Link.com,2013-09-06 05:18:00,
2013-09-06 00:33:00,71.1,60.4,30.12,SE,135,4.7,-999.0,69,-99.99,,,0.00,Acu-Link.com,2013-09-06 05:33:00,
2013-09-06 02:11:00,70.3,61.2,30.12,ESE,112,3.2,-999.0,73,-99.99,,,0.00,Acu-Link.com,2013-09-06 07:11:00,
2013-09-06 02:26:00,70.3,61.6,30.11,South,180,2.7,-999.0,74,-99.99,,,0.00,Acu-Link.com,2013-09-06 07:26:00,
2013-09-06 02:41:00,70.0,61.7,30.12,South,180,3.2,-999.0,75,-99.99,,,0.00,Acu-Link.com,2013-09-06 07:41:00,
2013-09-06 02:57:00,69.4,61.9,30.11,SE,135,4.2,-999.0,77,-99.99,,,0.00,Acu-Link.com,2013-09-06 07:57:00,
2013-09-06 03:13:00,69.3,62.1,30.11,South,180,2.7,-999.0,78,-99.99,,,0.00,Acu-Link.com,2013-09-06 08:13:00,
2013-09-06 03:30:00,69.1,61.9,30.12,South,180,4.2,-999.0,78,-99.99,,,0.00,Acu-Link.com,2013-09-06 08:30:00,
2013-09-06 03:45:00,68.5,61.7,30.12,South,180,2.2,-999.0,79,-99.99,,,0.00,Acu-Link.com,2013-09-06 08:45:00,
2013-09-06 04:00:00,67.8,62.1,30.11,SSE,157,2.7,-999.0,82,-99.99,,,0.00,Acu-Link.com,2013-09-06 09:00:00,
2013-09-06 04:15:00,67.3,62.0,30.11,South,180,3.2,-999.0,83,-99.99,,,0.00,Acu-Link.com,2013-09-06 09:15:00,
2013-09-06 04:31:00,66.9,61.9,30.11,South,180,2.7,-999.0,84,-99.99,,,0.00,Acu-Link.com,2013-09-06 09:31:00,
2013-09-06 04:46:00,66.7,62.0,30.10,SE,135,0.0,-999.0,85,-99.99,,,0.00,Acu-Link.com,2013-09-06 09:46:00,
2013-09-06 05:01:00,66.2,61.9,30.11,ESE,112,0.0,-999.0,86,-99.99,,,0.00,Acu-Link.com,2013-09-06 10:01:00,
2013-09-06 05:16:00,65.5,61.8,30.11,SE,135,0.0,-999.0,88,-99.99,,,0.00,Acu-Link.com,2013-09-06 10:16:00,
2013-09-06 05:31:00,65.3,62.0,30.11,SSE,157,1.1,-999.0,89,-99.99,,,0.00,Acu-Link.com,2013-09-06 10:31:00,
2013-09-06 05:46:00,64.9,61.9,30.11,ESE,112,2.2,-999.0,90,-99.99,,,0.00,Acu-Link.com,2013-09-06 10:46:00,
2013-09-06 06:02:00,64.4,61.4,30.12,SE,135,0.0,-999.0,90,-99.99,,,0.00,Acu-Link.com,2013-09-06 11:02:00,
2013-09-06 06:17:00,63.9,61.5,30.11,SSE,157,0.0,-999.0,92,-99.99,,,0.00,Acu-Link.com,2013-09-06 11:17:00,
2013-09-06 06:32:00,64.6,61.9,30.11,SE,135,2.2,-999.0,91,-99.99,,,0.00,Acu-Link.com,2013-09-06 11:32:00,
2013-09-06 06:47:00,64.6,61.9,30.12,ESE,112,2.2,-999.0,91,-99.99,,,0.00,Acu-Link.com,2013-09-06 11:47:00,
2013-09-06 07:02:00,64.6,61.9,30.12,SSE,157,1.1,-999.0,91,-99.99,,,0.00,Acu-Link.com,2013-09-06 12:02:00,
2013-09-06 07:18:00,64.6,62.2,30.12,SSE,157,0.0,-999.0,92,-99.99,,,0.00,Acu-Link.com,2013-09-06 12:18:00,
2013-09-06 07:33:00,65.8,62.8,30.12,SSW,202,4.7,-999.0,90,-99.99,,,0.00,Acu-Link.com,2013-09-06 12:33:00,
2013-09-06 07:48:00,68.0,63.3,30.12,South,180,2.7,-999.0,85,-99.99,,,0.00,Acu-Link.com,2013-09-06 12:48:00,
2013-09-06 08:04:00,71.2,64.3,30.12,ESE,112,4.2,-999.0,79,-99.99,,,0.00,Acu-Link.com,2013-09-06 13:04:00,
2013-09-06 08:19:00,72.1,64.5,30.11,SSE,157,6.8,-999.0,77,-99.99,,,0.00,Acu-Link.com,2013-09-06 13:19:00,
2013-09-06 08:34:00,73.4,65.0,30.11,SSW,202,5.8,-999.0,75,-99.99,,,0.00,Acu-Link.com,2013-09-06 13:34:00,
2013-09-06 08:49:00,76.3,65.8,30.11,SSW,202,3.7,-999.0,70,-99.99,,,0.00,Acu-Link.com,2013-09-06 13:49:00,
2013-09-06 09:04:00,77.4,66.0,30.11,South,180,5.8,-999.0,68,-99.99,,,0.00,Acu-Link.com,2013-09-06 14:04:00,
2013-09-06 09:20:00,78.8,65.6,30.11,South,180,8.9,-999.0,64,-99.99,,,0.00,Acu-Link.com,2013-09-06 14:20:00,
2013-09-06 09:35:00,79.5,66.7,30.11,SSE,157,4.7,-999.0,65,-99.99,,,0.00,Acu-Link.com,2013-09-06 14:35:00,
2013-09-06 09:50:00,80.6,66.8,30.11,SE,135,5.3,-999.0,63,-99.99,,,0.00,Acu-Link.com,2013-09-06 14:50:00,
2013-09-06 10:05:00,82.0,67.2,30.10,SW,225,4.7,-999.0,61,-99.99,,,0.00,Acu-Link.com,2013-09-06 15:05:00,
2013-09-06 10:21:00,83.1,67.3,30.10,SSW,202,7.8,-999.0,59,-99.99,,,0.00,Acu-Link.com,2013-09-06 15:21:00,
2013-09-06 10:36:00,84.2,67.8,30.10,SSE,157,6.3,-999.0,58,-99.99,,,0.00,Acu-Link.com,2013-09-06 15:36:00,
2013-09-06 10:51:00,85.6,69.1,30.10,SW,225,4.7,-999.0,58,-99.99,,,0.00,Acu-Link.com,2013-09-06 15:51:00,
2013-09-06 11:06:00,84.9,68.4,30.09,SW,225,7.3,-999.0,58,-99.99,,,0.00,Acu-Link.com,2013-09-06 16:06:00,
2013-09-06 11:21:00,85.5,69.0,30.09,SSE,157,4.7,-999.0,58,-99.99,,,0.00,Acu-Link.com,2013-09-06 16:21:00,
2013-09-06 11:37:00,85.3,68.8,30.09,SSW,202,4.2,-999.0,58,-99.99,,,0.00,Acu-Link.com,2013-09-06 16:37:00,
2013-09-06 11:52:00,86.2,70.2,30.09,South,180,5.8,-999.0,59,-99.99,,,0.00,Acu-Link.com,2013-09-06 16:52:00,
2013-09-06 12:07:00,90.7,71.2,30.08,East,90,7.3,-999.0,53,-99.99,,,0.00,Acu-Link.com,2013-09-06 17:07:00,
2013-09-06 12:23:00,90.0,71.1,30.07,South,180,5.8,-999.0,54,-99.99,,,0.00,Acu-Link.com,2013-09-06 17:23:00,
2013-09-06 12:38:00,90.1,72.3,30.07,South,180,9.4,-999.0,56,-99.99,,,0.00,Acu-Link.com,2013-09-06 17:38:00,
2013-09-06 12:53:00,91.0,72.0,30.06,South,180,10.4,-999.0,54,-99.99,,,0.00,Acu-Link.com,2013-09-06 17:53:00,
2013-09-06 13:08:00,89.4,71.6,30.06,ESE,112,5.3,-999.0,56,-99.99,,,0.00,Acu-Link.com,2013-09-06 18:08:00,
2013-09-06 13:23:00,89.2,71.4,30.05,ESE,112,5.3,-999.0,56,-99.99,,,0.00,Acu-Link.com,2013-09-06 18:23:00,
2013-09-06 13:39:00,87.3,70.7,30.04,SSE,157,9.4,-999.0,58,-99.99,,,0.00,Acu-Link.com,2013-09-06 18:39:00,
2013-09-06 13:54:00,85.8,71.2,30.04,SE,135,3.7,-999.0,62,-99.99,,,0.00,Acu-Link.com,2013-09-06 18:54:00,
2013-09-06 14:09:00,88.2,72.0,30.03,ESE,112,6.3,-999.0,59,-99.99,,,0.00,Acu-Link.com,2013-09-06 19:09:00,
2013-09-06 14:24:00,88.9,71.7,30.02,South,180,8.3,-999.0,57,-99.99,,,0.00,Acu-Link.com,2013-09-06 19:24:00,
2013-09-06 14:39:00,90.0,72.2,30.02,SW,225,5.8,-999.0,56,-99.99,,,0.00,Acu-Link.com,2013-09-06 19:39:00,
2013-09-06 14:55:00,90.5,72.1,30.01,SSE,157,7.8,-999.0,55,-99.99,,,0.00,Acu-Link.com,2013-09-06 19:55:00,
2013-09-06 15:10:00,90.5,72.6,30.01,ESE,112,8.3,-999.0,56,-99.99,,,0.00,Acu-Link.com,2013-09-06 20:10:00,
2013-09-06 15:25:00,90.3,72.4,30.00,SSE,157,8.3,-999.0,56,-99.99,,,0.00,Acu-Link.com,2013-09-06 20:25:00,
2013-09-06 15:40:00,90.1,72.8,30.00,SE,135,5.8,-999.0,57,-99.99,,,0.00,Acu-Link.com,2013-09-06 20:40:00,
2013-09-06 15:56:00,90.5,72.6,29.99,WSW,247,6.3,-999.0,56,-99.99,,,0.00,Acu-Link.com,2013-09-06 20:56:00,
2013-09-06 16:11:00,91.0,72.0,29.98,ESE,112,11.4,-999.0,54,-99.99,,,0.00,Acu-Link.com,2013-09-06 21:11:00,
2013-09-06 16:26:00,91.2,72.7,29.98,SSE,157,10.9,-999.0,55,-99.99,,,0.00,Acu-Link.com,2013-09-06 21:26:00,
2013-09-06 16:41:00,88.9,71.1,29.98,SE,135,7.8,-999.0,56,-99.99,,,0.00,Acu-Link.com,2013-09-06 21:41:00,
2013-09-06 16:57:00,89.1,71.8,29.98,SSE,157,5.3,-999.0,57,-99.99,,,0.00,Acu-Link.com,2013-09-06 21:57:00,
2013-09-06 17:12:00,88.0,71.3,29.97,South,180,10.4,-999.0,58,-99.99,,,0.00,Acu-Link.com,2013-09-06 22:12:00,
2013-09-06 17:27:00,86.4,71.3,29.97,South,180,7.8,-999.0,61,-99.99,,,0.00,Acu-Link.com,2013-09-06 22:27:00,
2013-09-06 17:42:00,86.0,71.0,29.97,South,180,4.7,-999.0,61,-99.99,,,0.00,Acu-Link.com,2013-09-06 22:42:00,
2013-09-06 17:58:00,85.3,71.2,29.96,ESE,112,7.3,-999.0,63,-99.99,,,0.00,Acu-Link.com,2013-09-06 22:58:00,
2013-09-06 18:13:00,84.0,70.5,29.96,WSW,247,6.3,-999.0,64,-99.99,,,0.00,Acu-Link.com,2013-09-06 23:13:00,
2013-09-06 18:28:00,83.5,70.5,29.96,SSE,157,6.8,-999.0,65,-99.99,,,0.00,Acu-Link.com,2013-09-06 23:28:00,
2013-09-06 18:43:00,83.3,70.7,29.96,SSW,202,5.3,-999.0,66,-99.99,,,0.00,Acu-Link.com,2013-09-06 23:43:00,
2013-09-06 18:58:00,82.6,71.4,29.95,SSE,157,5.3,-999.0,69,-99.99,,,0.00,Acu-Link.com,2013-09-06 23:58:00,
2013-09-06 19:14:00,81.9,71.1,29.95,SSE,157,5.3,-999.0,70,-99.99,,,0.00,Acu-Link.com,2013-09-07 00:14:00,
2013-09-06 19:29:00,81.3,70.1,29.95,ESE,112,5.3,-999.0,69,-99.99,,,0.00,Acu-Link.com,2013-09-07 00:29:00,
2013-09-06 19:44:00,80.4,70.1,29.94,SSE,157,3.2,-999.0,71,-99.99,,,0.00,Acu-Link.com,2013-09-07 00:44:00,
2013-09-06 19:59:00,79.7,69.9,29.94,SSE,157,4.7,-999.0,72,-99.99,,,0.00,Acu-Link.com,2013-09-07 00:59:00,
2013-09-06 20:14:00,79.2,69.8,29.95,SW,225,5.8,-999.0,73,-99.99,,,0.00,Acu-Link.com,2013-09-07 01:14:00,
2013-09-06 20:30:00,78.4,69.8,29.94,South,180,4.7,-999.0,75,-99.99,,,0.00,Acu-Link.com,2013-09-07 01:30:00,
2013-09-06 20:45:00,78.3,70.1,29.94,SE,135,5.3,-999.0,76,-99.99,,,0.00,Acu-Link.com,2013-09-07 01:45:00,
2013-09-06 21:00:00,78.1,69.9,29.95,ENE,67,4.7,-999.0,76,-99.99,,,0.00,Acu-Link.com,2013-09-07 02:00:00,
2013-09-06 21:16:00,77.7,69.9,29.95,SSE,157,5.8,-999.0,77,-99.99,,,0.00,Acu-Link.com,2013-09-07 02:16:00,
2013-09-06 21:31:00,77.2,69.4,29.95,SSE,157,4.2,-999.0,77,-99.99,,,0.00,Acu-Link.com,2013-09-07 02:31:00,
2013-09-06 21:46:00,77.2,69.4,29.95,South,180,6.3,-999.0,77,-99.99,,,0.00,Acu-Link.com,2013-09-07 02:46:00,
2013-09-06 22:01:00,77.2,69.4,29.95,WSW,247,6.8,-999.0,77,-99.99,,,0.00,Acu-Link.com,2013-09-07 03:01:00,
2013-09-06 22:16:00,76.6,68.8,29.95,ESE,112,4.2,-999.0,77,-99.99,,,0.00,Acu-Link.com,2013-09-07 03:16:00,
2013-09-06 22:32:00,76.5,68.7,29.95,South,180,5.3,-999.0,77,-99.99,,,0.00,Acu-Link.com,2013-09-07 03:32:00,
2013-09-06 22:47:00,76.1,68.4,29.95,South,180,9.4,-999.0,77,-99.99,,,0.00,Acu-Link.com,2013-09-07 03:47:00,
2013-09-06 23:02:00,75.6,68.2,29.94,South,180,4.7,-999.0,78,-99.99,,,0.00,Acu-Link.com,2013-09-07 04:02:00,
2013-09-06 23:17:00,75.0,68.0,29.95,ESE,112,3.2,-999.0,79,-99.99,,,0.00,Acu-Link.com,2013-09-07 04:17:00,
2013-09-06 23:32:00,74.8,68.2,29.95,SW,225,7.3,-999.0,80,-99.99,,,0.00,Acu-Link.com,2013-09-07 04:32:00,
2013-09-06 23:48:00,74.3,68.1,29.95,SSE,157,6.3,-999.0,81,-99.99,,,0.00,Acu-Link.com,2013-09-07 04:48:00,